Time;durP1;ratioP1;P1;durP2;ratioP2;P2;SDS_P1;SDS_P2;PMS_P1;PMS_P2;Temp;Humidity;BMP_temperature;BMP_pressure;BME280_temperature;BME280_humidity;BME280_pressure;Samples;Min_cycle;Max_cycle;Signal;HPM_P1;HPM_P2
2023/03/23 07:13:44;;;;;;;;;0.00;0.00;;;;;18.13;46.76;100449.56;5109647;27;45487;-74
2023/03/23 07:16:10;;;;;;;;;0.25;0.25;;;;;18.65;47.84;100424.25;5111224;27;45392;-74
2023/03/23 07:18:36;;;;;;;;;0.50;0.00;;;;;19.43;48.13;100430.41;5107863;27;45565;-74
2023/03/23 07:21:01;;;;;;;;;3.00;1.00;;;;;20.28;48.26;100441.97;5105686;27;45387;-74
2023/03/23 07:23:29;;;;;;;;;2.00;1.00;;;;;21.15;47.86;100427.81;5092908;27;45405;-74
2023/03/23 07:25:55;;;;;;;;;1.00;1.00;;;;;21.90;47.67;100425.41;5109543;27;45445;-73
2023/03/23 07:28:21;;;;;;;;;2.00;0.00;;;;;22.57;47.22;100418.25;5110957;27;45888;-74
2023/03/23 07:30:46;;;;;;;;;0.00;0.00;;;;;23.16;46.04;100418.97;5110988;27;45599;-74
2023/03/23 07:33:12;;;;;;;;;1.33;0.67;;;;;23.66;45.84;100429.63;5110132;27;45385;-73
2023/03/23 07:35:38;;;;;;;;;0.00;0.00;;;;;24.09;45.49;100442.81;5111155;27;45512;-74
2023/03/23 07:38:06;;;;;;;;;1.00;1.00;;;;;24.49;44.91;100429.13;5110858;27;45439;-74
2023/03/23 07:40:35;;;;;;;;;0.67;0.00;;;;;24.84;44.33;100421.38;5109847;27;45561;-75
2023/03/23 07:43:03;;;;;;;;;0.00;0.00;;;;;25.15;43.70;100418.66;5122912;27;47056;-74
2023/03/23 07:45:29;;;;;;;;;0.67;0.67;;;;;25.38;43.49;100411.25;5109598;27;45668;-72
2023/03/23 07:47:55;;;;;;;;;0.00;0.00;;;;;25.58;42.91;100424.28;5109650;27;45484;-72
2023/03/23 07:50:24;;;;;;;;;0.00;0.00;;;;;25.79;42.58;100436.25;5110912;27;45488;-73
2023/03/23 07:52:50;;;;;;;;;3.00;0.33;;;;;25.97;42.67;100449.41;5107699;27;47294;-72
2023/03/23 07:55:19;;;;;;;;;0.00;0.00;;;;;26.16;42.18;100447.91;5102885;27;45413;-73
2023/03/23 07:57:46;;;;;;;;;0.00;0.00;;;;;26.29;41.83;100446.41;5110682;27;45469;-72
2023/03/23 08:00:15;;;;;;;;;2.00;1.00;;;;;26.42;41.29;100457.44;5106152;27;45416;-74
2023/03/23 08:02:41;;;;;;;;;0.00;0.00;;;;;26.55;41.22;100461.28;5090222;27;45509;-75
2023/03/23 08:05:08;;;;;;;;;0.00;0.00;;;;;26.65;41.49;100469.13;5106129;27;45473;-75
2023/03/23 08:07:34;;;;;;;;;0.33;0.33;;;;;26.76;41.38;100454.16;5094989;27;45440;-77
2023/03/23 08:09:59;;;;;;;;;0.67;0.67;;;;;26.86;40.59;100434.72;5101448;27;45525;-78
2023/03/23 08:12:24;;;;;;;;;0.67;0.00;;;;;26.93;40.25;100450.09;5101647;27;46876;-76
2023/03/23 08:14:51;;;;;;;;;0.00;0.00;;;;;27.02;40.14;100464.41;5108580;27;45334;-78
2023/03/23 08:17:16;;;;;;;;;0.67;0.00;;;;;27.10;39.93;100460.69;5103674;27;45664;-76
2023/03/23 08:19:42;;;;;;;;;0.00;0.00;;;;;27.16;39.96;100468.06;5107793;27;45599;-78
2023/03/23 08:22:08;;;;;;;;;0.00;0.00;;;;;27.22;39.77;100471.88;5103300;27;46467;-77
2023/03/23 08:24:33;;;;;;;;;1.00;0.00;;;;;27.28;39.96;100475.66;5095478;27;45492;-75
2023/03/23 08:27:00;;;;;;;;;0.00;0.00;;;;;27.33;39.76;100484.94;5096945;27;45425;-74
2023/03/23 08:29:25;;;;;;;;;0.67;0.67;;;;;27.40;39.11;100463.19;5096465;27;45477;-79
2023/03/23 08:31:51;;;;;;;;;0.00;0.00;;;;;27.45;39.08;100455.22;5094087;27;46241;-77
2023/03/23 08:34:16;;;;;;;;;0.33;0.33;;;;;27.48;39.49;100478.50;5081888;27;45474;-78
2023/03/23 08:36:44;;;;;;;;;0.00;0.00;;;;;27.52;39.06;100492.56;5096918;27;45473;-76
2023/03/23 08:39:09;;;;;;;;;1.00;0.67;;;;;27.57;39.44;100496.38;5091480;27;45518;-77
2023/03/23 08:41:35;;;;;;;;;0.00;0.00;;;;;27.60;38.79;100468.75;5094877;27;46070;-81
2023/03/23 08:44:00;;;;;;;;;0.00;0.00;;;;;27.65;39.15;100475.47;5095825;27;45586;-82
2023/03/23 08:46:25;;;;;;;;;0.00;0.00;;;;;27.65;38.81;100472.75;5095351;27;45433;-83
2023/03/23 08:48:51;;;;;;;;;0.00;0.00;;;;;27.64;38.51;100468.34;5095411;27;45597;-76
2023/03/23 08:51:16;;;;;;;;;0.67;0.67;;;;;27.60;38.63;100470.63;5094879;27;47732;-73
2023/03/23 08:53:42;;;;;;;;;1.00;1.00;;;;;27.62;37.93;100471.25;5095969;27;45753;-74
2023/03/23 08:56:10;;;;;;;;;0.00;0.00;;;;;27.63;37.58;100486.59;5096044;27;45319;-74
2023/03/23 08:58:39;;;;;;;;;0.00;0.00;;;;;27.65;37.42;100481.78;5096468;27;45706;-74
2023/03/23 09:01:06;;;;;;;;;0.00;0.00;;;;;27.71;37.65;100493.75;5095641;27;45437;-74
2023/03/23 09:03:33;;;;;;;;;0.00;0.00;;;;;27.75;37.72;100495.03;5093531;27;45480;-74
2023/03/23 09:06:04;;;;;;;;;1.00;0.00;;;;;27.78;37.86;100491.88;5095168;27;45391;-74
2023/03/23 09:08:31;;;;;;;;;1.67;1.00;;;;;27.82;37.76;100495.88;5095331;27;45461;-73
2023/03/23 09:11:00;;;;;;;;;0.00;0.00;;;;;27.88;37.12;100497.78;5091821;27;46655;-75
2023/03/23 09:13:25;;;;;;;;;1.33;1.33;;;;;27.95;37.02;100486.91;5095824;27;45375;-74
2023/03/23 09:15:51;;;;;;;;;0.67;0.67;;;;;27.99;36.97;100490.91;5081694;27;45374;-77
2023/03/23 09:18:18;;;;;;;;;1.00;1.00;;;;;28.04;37.15;100501.22;5095746;27;45433;-73
2023/03/23 09:20:44;;;;;;;;;0.00;0.00;;;;;28.07;36.76;100497.25;5095453;27;45561;-76
2023/03/23 09:23:09;;;;;;;;;2.00;1.00;;;;;28.08;37.41;100491.56;5095683;27;45414;-74
2023/03/23 09:25:35;;;;;;;;;1.00;1.00;;;;;28.10;36.88;100492.22;5094680;27;45409;-74
2023/03/23 09:28:00;;;;;;;;;0.00;0.00;;;;;28.12;36.80;100468.28;5095799;27;45441;-75
2023/03/23 09:30:28;;;;;;;;;0.00;0.00;;;;;28.17;36.96;100478.59;5095834;27;46199;-76
2023/03/23 09:32:54;;;;;;;;;0.00;0.00;;;;;28.20;36.69;100480.88;5091306;27;45453;-75
2023/03/23 09:35:21;;;;;;;;;0.00;0.00;;;;;28.24;36.39;100471.28;5095654;27;45610;-74
2023/03/23 09:37:48;;;;;;;;;1.00;0.00;;;;;28.26;36.70;100458.28;5095337;27;45597;-75
2023/03/23 09:40:19;;;;;;;;;0.00;0.00;;;;;28.30;36.67;100475.06;5094721;27;46155;-84
2023/03/23 09:43:04;;;;;;;;;0.00;0.00;;;;;28.34;36.36;100487.25;5081170;27;45514;-76
2023/03/23 09:45:49;;;;;;;;;0.00;0.00;;;;;28.34;36.43;100479.06;5091495;27;45459;-79
2023/03/23 09:48:46;;;;;;;;;0.67;0.67;;;;;28.32;36.22;100488.53;5082230;27;46388;-78
2023/03/23 09:51:14;;;;;;;;;1.33;0.33;;;;;28.27;36.34;100494.56;5087532;27;45990;-84
2023/03/23 09:53:44;;;;;;;;;2.00;0.33;;;;;28.22;35.59;100489.72;5090635;27;45551;-73
2023/03/23 09:56:14;;;;;;;;;1.00;1.00;;;;;28.18;35.95;100501.25;5095366;27;45512;-78
2023/03/23 09:58:50;;;;;;;;;6.33;3.33;;;;;28.18;35.54;100495.78;5090947;27;45518;-76
2023/03/23 10:01:20;;;;;;;;;1.00;1.00;;;;;28.17;35.53;100489.50;5088063;27;46282;-81
2023/03/23 10:03:47;;;;;;;;;0.33;0.33;;;;;28.19;35.82;100490.13;5089736;27;45397;-78
2023/03/23 10:06:17;;;;;;;;;1.33;1.00;;;;;28.22;35.81;100497.06;5091023;27;45564;-79
2023/03/23 10:08:49;;;;;;;;;1.00;1.00;;;;;28.26;35.96;100473.81;5094336;27;45411;-77
2023/03/23 10:11:33;;;;;;;;;1.00;1.00;;;;;28.31;35.64;100495.03;5080820;27;45454;-76
2023/03/23 10:14:17;;;;;;;;;0.67;0.67;;;;;28.35;35.88;100485.34;5092582;27;45740;-76
2023/03/23 10:17:00;;;;;;;;;1.00;1.00;;;;;28.34;35.68;100484.53;5080786;27;45478;-83
2023/03/23 10:19:35;;;;;;;;;0.00;0.00;;;;;28.40;35.13;100477.38;5093724;27;45675;-76
2023/03/23 10:22:09;;;;;;;;;2.00;1.67;;;;;28.45;35.37;100488.53;5089298;27;45640;-76
2023/03/23 10:24:48;;;;;;;;;1.00;1.00;;;;;28.47;35.57;100486.44;5093661;27;45431;-76
2023/03/23 10:27:21;;;;;;;;;0.00;0.00;;;;;28.50;35.47;100486.03;5094139;27;45449;-79
2023/03/23 10:29:53;;;;;;;;;3.00;2.00;;;;;28.54;35.73;100492.72;5090804;27;45561;-78
2023/03/23 10:32:37;;;;;;;;;1.33;1.00;;;;;28.57;35.45;100496.91;5084799;27;45477;-79
2023/03/23 10:35:06;;;;;;;;;0.00;0.00;;;;;28.61;35.17;100495.47;5083214;27;45410;-80
2023/03/23 10:37:44;;;;;;;;;0.00;0.00;;;;;28.64;34.86;100491.47;5088267;27;45434;-79
2023/03/23 10:40:27;;;;;;;;;1.00;1.00;;;;;28.61;35.07;100487.28;5094252;27;45552;-79
2023/03/23 10:42:54;;;;;;;;;0.67;0.67;;;;;28.69;34.69;100496.31;5092504;27;47440;-79
2023/03/23 10:45:32;;;;;;;;;0.67;0.00;;;;;28.70;35.09;100493.38;5093227;27;46053;-79
2023/03/23 10:48:06;;;;;;;;;0.00;0.00;;;;;28.71;34.50;100491.47;5082172;27;45453;-76
2023/03/23 10:50:35;;;;;;;;;0.33;0.33;;;;;28.72;34.70;100493.19;5092915;27;45533;-75
2023/03/23 10:53:11;;;;;;;;;2.00;2.00;;;;;28.74;35.21;100500.13;5093825;27;45986;-77
2023/03/23 10:55:39;;;;;;;;;0.00;0.00;;;;;28.76;34.82;100495.25;5091933;27;46490;-77
2023/03/23 10:58:09;;;;;;;;;0.00;0.00;;;;;28.79;34.51;100494.84;5092711;27;45406;-78
2023/03/23 11:00:44;;;;;;;;;1.00;1.00;;;;;28.82;34.29;100504.53;5092896;27;45442;-77
2023/03/23 11:03:18;;;;;;;;;0.33;0.33;;;;;28.83;34.69;100503.47;5090494;27;45444;-78
2023/03/23 11:05:48;;;;;;;;;0.00;0.00;;;;;28.85;35.02;100484.13;5091922;27;45660;-77
2023/03/23 11:08:20;;;;;;;;;0.00;0.00;;;;;28.82;34.65;100457.25;5088008;27;45520;-77
2023/03/23 11:10:55;;;;;;;;;0.67;0.67;;;;;28.86;34.83;100486.66;5082046;27;45506;-76
2023/03/23 11:13:25;;;;;;;;;0.00;0.00;;;;;28.87;34.43;100492.94;5075761;27;46436;-73
2023/03/23 11:15:50;;;;;;;;;0.00;0.00;;;;;28.86;34.55;100477.63;5091626;27;45282;-87
2023/03/23 11:18:23;;;;;;;;;1.00;1.00;;;;;28.84;34.42;100455.97;5094143;27;45801;-88
2023/03/23 11:20:53;;;;;;;;;0.00;0.00;;;;;28.80;34.18;100457.44;5078770;27;46994;-83
2023/03/23 11:23:29;;;;;;;;;1.67;1.67;;;;;28.72;33.73;100471.34;5088740;27;46205;-92
2023/03/23 11:26:10;;;;;;;;;1.00;1.00;;;;;28.67;34.26;100475.53;5083376;27;45281;-91
2023/03/23 11:28:41;;;;;;;;;0.00;0.00;;;;;28.60;34.35;100476.59;5094579;27;45384;-92
2023/03/23 11:31:07;;;;;;;;;0.00;0.00;;;;;28.53;33.98;100460.19;5085218;27;46190;-85
2023/03/23 11:33:38;;;;;;;;;2.00;0.33;;;;;28.49;33.77;100478.88;5089796;27;48201;-87
2023/03/23 11:36:06;;;;;;;;;2.00;2.00;;;;;28.45;33.72;100480.34;5093819;27;45379;-88
2023/03/23 11:38:33;;;;;;;;;1.00;1.00;;;;;28.39;34.10;100479.28;5092238;27;45433;-88
2023/03/23 11:40:59;;;;;;;;;3.00;1.00;;;;;28.34;33.72;100464.56;5093098;27;45371;-88
2023/03/23 11:43:26;;;;;;;;;1.00;1.00;;;;;28.30;33.55;100475.06;5093161;27;46058;-87
2023/03/23 11:46:10;;;;;;;;;3.67;1.00;;;;;28.27;33.36;100470.03;5093702;27;45466;-87
2023/03/23 11:48:47;;;;;;;;;1.67;1.00;;;;;28.20;33.42;100456.34;5082576;27;45443;-85
2023/03/23 11:51:44;;;;;;;;;0.67;0.67;;;;;28.18;33.38;100455.72;5092825;27;45529;-86
2023/03/23 11:54:19;;;;;;;;;3.00;2.00;;;;;28.12;33.42;100451.91;5091201;27;45504;-86
2023/03/23 11:56:46;;;;;;;;;1.00;1.00;;;;;28.09;33.96;100460.53;5093665;27;45799;-86
2023/03/23 11:59:17;;;;;;;;;0.33;0.33;;;;;28.05;33.89;100451.06;5094936;27;45422;-85
2023/03/23 12:01:44;;;;;;;;;1.33;1.33;;;;;28.04;33.70;100459.47;5091707;27;45354;-88
2023/03/23 12:04:41;;;;;;;;;1.00;1.00;;;;;27.99;33.27;100470.97;5116364;27;47082;-87
2023/03/23 12:07:41;;;;;;;;;0.00;0.00;;;;;27.95;33.94;100454.19;5096943;27;45411;-87
2023/03/23 12:10:22;;;;;;;;;2.33;0.00;;;;;27.94;33.35;100466.16;5085942;27;45859;-84
2023/03/23 12:13:06;;;;;;;;;1.67;1.67;;;;;27.92;33.71;100470.97;5085536;27;45446;-86
2023/03/23 12:15:56;;;;;;;;;2.33;1.67;;;;;27.91;33.83;100466.53;5095755;27;45961;-86
2023/03/23 12:18:22;;;;;;;;;0.00;0.00;;;;;27.88;33.66;100464.25;5082828;27;45513;-85
2023/03/23 12:21:07;;;;;;;;;1.00;1.00;;;;;27.87;33.73;100462.53;5094596;27;45451;-87
2023/03/23 12:23:55;;;;;;;;;3.00;1.00;;;;;27.82;33.65;100459.59;5082609;27;45977;-85
2023/03/23 12:26:21;;;;;;;;;1.00;1.00;;;;;27.83;33.30;100464.03;5081366;27;45570;-85
2023/03/23 12:29:15;;;;;;;;;1.00;1.00;;;;;27.82;33.28;100454.13;5084288;27;45542;-84
2023/03/23 12:32:00;;;;;;;;;1.00;1.00;;;;;27.82;33.59;100449.53;5084131;27;45642;-86
2023/03/23 12:34:28;;;;;;;;;1.00;1.00;;;;;27.85;33.32;100440.97;5085046;27;45471;-87
2023/03/23 12:37:21;;;;;;;;;1.00;1.00;;;;;27.87;33.45;100435.28;5086802;27;46208;-79
2023/03/23 12:40:17;;;;;;;;;0.00;0.00;;;;;27.92;33.23;100437.41;5082152;27;45539;-73
2023/03/23 12:42:51;;;;;;;;;1.00;1.00;;;;;27.94;33.29;100430.69;5085186;27;45508;-73
2023/03/23 12:45:18;;;;;;;;;1.33;1.33;;;;;28.00;33.41;100424.41;5091168;27;45379;-73
2023/03/23 12:47:57;;;;;;;;;1.67;1.33;;;;;28.09;33.24;100416.88;5090907;27;45462;-73
2023/03/23 12:50:35;;;;;;;;;1.67;1.67;;;;;28.19;33.72;100418.38;5086340;27;45512;-73
2023/03/23 12:53:13;;;;;;;;;1.00;1.00;;;;;28.29;33.65;100432.47;5093665;27;45452;-73
2023/03/23 12:55:49;;;;;;;;;1.00;1.00;;;;;28.37;33.91;100420.50;5085053;27;45498;-73
2023/03/23 12:58:40;;;;;;;;;1.00;1.00;;;;;28.48;33.14;100411.69;5095596;27;45568;-73
2023/03/23 13:01:17;;;;;;;;;2.33;2.00;;;;;28.57;33.01;100416.94;5095702;27;45391;-73
2023/03/23 13:03:50;;;;;;;;;2.00;1.00;;;;;28.62;33.53;100420.72;5090759;27;45532;-73
2023/03/23 13:06:31;;;;;;;;;0.00;0.00;;;;;28.67;33.39;100415.47;5084663;27;45916;-74
2023/03/23 13:09:12;;;;;;;;;0.00;0.00;;;;;28.70;33.21;100419.66;5088696;27;46225;-75
2023/03/23 13:11:41;;;;;;;;;2.00;1.00;;;;;28.75;33.30;100408.94;5091526;27;45467;-73
2023/03/23 13:14:17;;;;;;;;;1.00;1.00;;;;;28.77;32.86;100397.81;5088376;27;45482;-75
2023/03/23 13:17:13;;;;;;;;;1.00;0.67;;;;;28.83;33.00;100399.69;5083233;27;45477;-75
2023/03/23 13:20:00;;;;;;;;;1.00;1.00;;;;;28.90;33.06;100396.97;5094407;27;45530;-76
2023/03/23 13:23:05;;;;;;;;;1.33;1.00;;;;;28.97;33.04;100395.03;5093139;27;45574;-76
2023/03/23 13:25:45;;;;;;;;;1.00;1.00;;;;;29.00;33.18;100383.69;5089478;27;45411;-76
2023/03/23 13:28:22;;;;;;;;;0.00;0.00;;;;;29.04;32.91;100381.38;5093885;27;45411;-77
2023/03/23 13:30:58;;;;;;;;;2.00;1.00;;;;;29.07;32.82;100375.50;5088577;27;45579;-79
2023/03/23 13:33:25;;;;;;;;;0.00;0.00;;;;;29.09;32.94;100367.09;5092089;27;45441;-78
2023/03/23 13:35:51;;;;;;;;;1.00;1.00;;;;;29.10;32.87;100360.56;5092727;27;45726;-76
2023/03/23 13:38:26;;;;;;;;;2.00;0.00;;;;;29.11;33.13;100367.69;5081913;27;46269;-78
2023/03/23 13:40:53;;;;;;;;;0.00;0.00;;;;;29.13;33.58;100350.03;5083926;27;46163;-75
2023/03/23 13:43:36;;;;;;;;;0.00;0.00;;;;;29.16;33.18;100363.28;5087524;27;45547;-76
2023/03/23 13:46:13;;;;;;;;;1.00;1.00;;;;;29.18;33.05;100352.94;5089061;27;45536;-74
2023/03/23 13:48:45;;;;;;;;;1.33;1.33;;;;;29.17;32.85;100345.81;5064645;27;46773;-75
2023/03/23 13:51:49;;;;;;;;;2.00;2.00;;;;;29.21;32.93;100351.69;5075962;27;45520;-75
2023/03/23 13:54:30;;;;;;;;;1.33;1.00;;;;;29.19;33.07;100323.75;5086856;27;45425;-75
2023/03/23 13:56:58;;;;;;;;;1.00;1.00;;;;;29.21;32.98;100320.78;5093559;27;45538;-75
2023/03/23 13:59:27;;;;;;;;;2.33;0.00;;;;;29.23;32.94;100329.59;5094060;27;45580;-75
2023/03/23 14:01:54;;;;;;;;;1.00;1.00;;;;;29.24;32.94;100334.84;5091904;27;45560;-77
2023/03/23 14:04:21;;;;;;;;;1.00;1.00;;;;;29.21;32.69;100323.53;5094480;27;45421;-76
2023/03/23 14:06:49;;;;;;;;;1.00;0.00;;;;;29.24;33.07;100323.06;5093146;27;45542;-75
2023/03/23 14:09:39;;;;;;;;;1.00;1.00;;;;;29.24;33.46;100323.06;5094480;27;45478;-74
2023/03/23 14:12:16;;;;;;;;;0.67;0.67;;;;;29.22;32.76;100320.56;5085921;27;46273;-76
2023/03/23 14:14:45;;;;;;;;;1.00;1.00;;;;;29.17;33.29;100307.56;5093742;27;45492;-73
2023/03/23 14:17:16;;;;;;;;;3.00;1.00;;;;;29.15;33.33;100300.63;5093762;27;45738;-75
2023/03/23 14:19:48;;;;;;;;;1.00;1.00;;;;;29.17;33.22;100306.72;5094450;27;45458;-75
2023/03/23 14:22:28;;;;;;;;;1.00;1.00;;;;;29.16;33.59;100313.22;5092396;27;46266;-75
2023/03/23 14:25:08;;;;;;;;;0.00;0.00;;;;;29.16;32.97;100296.84;5081550;27;45367;-76
2023/03/23 14:27:34;;;;;;;;;0.00;0.00;;;;;29.14;33.78;100296.22;5087171;27;45445;-76
2023/03/23 14:30:08;;;;;;;;;2.33;0.00;;;;;29.16;33.31;100297.69;5094717;27;45523;-76
2023/03/23 14:32:33;;;;;;;;;1.00;1.00;;;;;29.16;33.15;100303.16;5091536;27;46315;-76
2023/03/23 14:35:08;;;;;;;;;0.67;0.33;;;;;29.17;33.64;100306.72;5093808;27;45394;-76
2023/03/23 14:37:37;;;;;;;;;0.00;0.00;;;;;29.15;33.53;100298.75;5093471;27;45462;-75
2023/03/23 14:40:06;;;;;;;;;0.00;0.00;;;;;29.15;32.69;100297.91;5084843;27;45562;-77
2023/03/23 14:42:34;;;;;;;;;0.67;0.00;;;;;29.16;33.89;100303.16;5087310;27;46607;-75
2023/03/23 14:45:01;;;;;;;;;0.00;0.00;;;;;29.18;33.54;100292.84;5091208;27;46185;-74
2023/03/23 14:47:32;;;;;;;;;1.00;1.00;;;;;29.24;33.75;100285.66;5092884;27;45550;-78
2023/03/23 14:50:00;;;;;;;;;0.00;0.00;;;;;29.26;33.45;100299.13;5089613;27;45491;-73
2023/03/23 14:52:28;;;;;;;;;2.00;1.00;;;;;29.28;33.51;100294.25;5090338;27;45748;-74
2023/03/23 14:54:54;;;;;;;;;1.00;0.00;;;;;29.29;34.04;100293.19;5095591;27;45340;-74
2023/03/23 14:57:27;;;;;;;;;0.00;0.00;;;;;29.33;33.88;100288.97;5093952;27;45671;-74
2023/03/23 14:59:53;;;;;;;;;3.00;1.00;;;;;29.36;33.20;100287.69;5082790;27;45549;-73
2023/03/23 15:02:29;;;;;;;;;1.00;1.00;;;;;29.31;33.46;100286.44;5091211;27;45500;-74
2023/03/23 15:04:59;;;;;;;;;3.33;1.67;;;;;29.30;33.38;100290.25;5078637;27;45480;-74
2023/03/23 15:07:31;;;;;;;;;0.00;0.00;;;;;29.30;33.18;100301.19;5089248;27;47306;-75
2023/03/23 15:09:57;;;;;;;;;0.00;0.00;;;;;29.29;33.60;100293.19;5087690;27;45557;-75
2023/03/23 15:12:27;;;;;;;;;0.00;0.00;;;;;29.29;33.84;100285.84;5073329;27;46430;-74
2023/03/23 15:14:59;;;;;;;;;1.00;1.00;;;;;29.28;33.21;100292.38;5084346;27;45990;-88
2023/03/23 15:17:31;;;;;;;;;0.67;0.67;;;;;29.26;32.94;100296.38;5085424;27;45574;-89
2023/03/23 15:20:00;;;;;;;;;1.00;1.00;;;;;29.25;32.96;100292.81;5091470;27;45661;-88
2023/03/23 15:22:28;;;;;;;;;0.67;0.67;;;;;29.20;32.66;100289.88;5092964;27;45532;-89
2023/03/23 15:25:03;;;;;;;;;2.00;2.00;;;;;29.13;32.73;100289.06;5092688;27;45466;-89
2023/03/23 15:27:29;;;;;;;;;2.00;2.00;;;;;29.07;32.86;100288.06;5090447;27;45451;-79
2023/03/23 15:29:57;;;;;;;;;4.67;1.33;;;;;28.97;32.34;100274.84;5087940;27;45515;-76
2023/03/23 15:32:28;;;;;;;;;2.00;2.00;;;;;28.87;33.01;100266.25;5090337;27;47461;-76
2023/03/23 15:34:55;;;;;;;;;2.33;2.33;;;;;28.84;32.78;100266.69;5083455;27;45806;-75
2023/03/23 15:37:29;;;;;;;;;1.33;1.00;;;;;28.82;32.67;100266.91;5091523;27;45446;-75
2023/03/23 15:39:57;;;;;;;;;3.00;3.00;;;;;28.85;32.32;100260.19;5079220;27;45545;-73
2023/03/23 15:42:26;;;;;;;;;3.00;0.33;;;;;28.88;32.78;100265.19;5092423;27;46341;-73
2023/03/23 15:44:57;;;;;;;;;1.67;1.67;;;;;28.96;32.75;100261.41;5095576;27;45467;-75
2023/03/23 15:47:23;;;;;;;;;2.00;1.00;;;;;29.01;32.57;100258.91;5090048;27;45734;-74
2023/03/23 15:50:03;;;;;;;;;1.00;1.00;;;;;29.05;32.73;100255.50;5095731;27;45434;-73
2023/03/23 15:52:29;;;;;;;;;1.00;1.00;;;;;29.09;32.68;100257.81;5094197;27;45375;-81
2023/03/23 15:54:54;;;;;;;;;1.33;1.33;;;;;29.14;32.77;100257.97;5095045;27;45503;-75
2023/03/23 15:57:45;;;;;;;;;2.33;2.33;;;;;29.11;32.19;100242.00;5100938;27;45610;-78
2023/03/23 16:00:12;;;;;;;;;4.00;1.00;;;;;29.10;32.80;100254.00;5090966;27;45770;-79
2023/03/23 16:02:37;;;;;;;;;2.00;2.00;;;;;29.09;32.34;100260.53;5093395;27;45846;-78
2023/03/23 16:05:03;;;;;;;;;1.00;1.00;;;;;29.03;31.97;100254.88;5096767;27;45407;-77
2023/03/23 16:07:29;;;;;;;;;0.67;0.67;;;;;28.96;32.03;100250.47;5097550;27;45327;-79
2023/03/23 16:09:55;;;;;;;;;1.00;1.00;;;;;28.87;32.50;100245.25;5098678;27;45595;-78
2023/03/23 16:12:20;;;;;;;;;2.00;2.00;;;;;28.83;32.63;100256.81;5097872;27;45329;-78
2023/03/23 16:14:45;;;;;;;;;1.00;1.00;;;;;28.73;31.95;100239.00;5093678;27;45424;-78
2023/03/23 16:17:16;;;;;;;;;1.33;1.00;;;;;28.68;31.77;100244.28;5096823;27;45492;-78
2023/03/23 16:19:41;;;;;;;;;2.00;1.00;;;;;28.61;32.04;100236.09;5097527;27;45351;-78
2023/03/23 16:22:08;;;;;;;;;1.00;1.00;;;;;28.60;32.40;100239.06;5090206;27;53700;-79
2023/03/23 16:24:33;;;;;;;;;2.00;0.33;;;;;28.54;32.40;100238.84;5085761;27;45573;-78
2023/03/23 16:26:58;;;;;;;;;3.67;1.67;;;;;28.50;32.23;100234.91;5077476;27;45407;-77
2023/03/23 16:29:24;;;;;;;;;1.67;1.67;;;;;28.45;31.84;100225.66;5076978;27;45461;-78
2023/03/23 16:31:49;;;;;;;;;3.67;1.00;;;;;28.47;32.19;100229.00;5095613;27;49095;-78
2023/03/23 16:34:14;;;;;;;;;1.00;1.00;;;;;28.44;32.50;100226.72;5093235;27;45509;-78
2023/03/23 16:36:40;;;;;;;;;1.00;1.00;;;;;28.40;31.89;100224.41;5095396;27;45407;-78
2023/03/23 16:39:05;;;;;;;;;2.67;2.67;;;;;28.36;31.98;100212.25;5090723;27;45720;-77
2023/03/23 16:41:30;;;;;;;;;2.00;0.00;;;;;28.39;32.50;100211.81;5095879;27;45428;-76
2023/03/23 16:43:56;;;;;;;;;3.67;1.33;;;;;28.43;32.48;100209.50;5096661;27;45490;-80
2023/03/23 16:46:21;;;;;;;;;1.67;1.00;;;;;28.48;32.46;100204.22;5095890;27;45465;-78
2023/03/23 16:48:46;;;;;;;;;3.67;3.33;;;;;28.51;31.76;100211.16;5084818;27;45314;-79
2023/03/23 16:51:12;;;;;;;;;1.00;1.00;;;;;28.52;32.50;100208.22;5090817;27;46352;-81
2023/03/23 16:53:37;;;;;;;;;1.67;1.67;;;;;28.54;31.83;100205.28;5094166;27;45522;-74
2023/03/23 16:56:03;;;;;;;;;2.00;1.00;;;;;28.50;32.15;100193.09;5093686;27;45632;-75
2023/03/23 16:58:28;;;;;;;;;1.33;1.33;;;;;28.47;31.75;100197.09;5094847;27;45490;-76
2023/03/23 17:00:54;;;;;;;;;1.00;1.00;;;;;28.49;32.39;100207.81;5094699;27;46566;-76
2023/03/23 17:03:20;;;;;;;;;1.00;1.00;;;;;28.49;31.65;100205.91;5107970;27;45414;-77
2023/03/23 17:05:50;;;;;;;;;2.33;1.00;;;;;28.52;31.78;100201.91;5090059;27;45822;-77
2023/03/23 17:08:17;;;;;;;;;2.00;1.67;;;;;28.53;32.04;100198.16;5093587;27;45895;-76
2023/03/23 17:10:43;;;;;;;;;1.00;1.00;;;;;28.56;31.69;100196.88;5082906;27;46181;-77
2023/03/23 17:13:08;;;;;;;;;1.00;1.00;;;;;28.59;32.39;100200.00;5087929;27;47670;-74
2023/03/23 17:15:39;;;;;;;;;1.00;1.00;;;;;28.64;31.54;100191.16;5093866;27;45616;-74
2023/03/23 17:18:05;;;;;;;;;2.00;2.00;;;;;28.64;32.02;100200.19;5092162;27;45466;-79
2023/03/23 17:20:31;;;;;;;;;1.67;1.33;;;;;28.69;31.85;100204.16;5087716;27;46955;-79
2023/03/23 17:22:58;;;;;;;;;1.67;1.00;;;;;28.69;32.03;100198.72;5090595;27;45562;-82
2023/03/23 17:25:24;;;;;;;;;1.00;1.00;;;;;28.67;31.54;100199.75;5085479;27;45793;-81
2023/03/23 17:27:50;;;;;;;;;1.00;1.00;;;;;28.64;31.44;100196.59;5093510;27;45484;-81
2023/03/23 17:30:16;;;;;;;;;0.00;0.00;;;;;28.61;31.98;100184.22;5093457;27;46375;-76
2023/03/23 17:32:41;;;;;;;;;3.00;3.00;;;;;28.56;31.32;100194.16;5091837;27;45548;-73
2023/03/23 17:35:07;;;;;;;;;3.00;1.00;;;;;28.52;31.88;100200.03;5091940;27;45371;-71
2023/03/23 17:37:33;;;;;;;;;4.67;2.00;;;;;28.51;31.94;100194.78;5096233;27;45528;-73
2023/03/23 17:39:58;;;;;;;;;3.00;2.33;;;;;28.49;31.65;100189.53;5090422;27;46801;-73
2023/03/23 17:42:23;;;;;;;;;3.00;2.00;;;;;28.52;31.76;100186.38;5094154;27;45488;-73
2023/03/23 17:44:49;;;;;;;;;3.33;1.00;;;;;28.54;31.98;100189.72;5094196;27;48246;-73
2023/03/23 17:47:14;;;;;;;;;2.00;2.00;;;;;28.61;32.34;100186.13;5092600;27;45747;-72
2023/03/23 17:49:39;;;;;;;;;1.00;1.00;;;;;28.63;31.73;100195.78;5080099;27;45856;-71
2023/03/23 17:52:05;;;;;;;;;1.00;1.00;;;;;28.65;31.71;100188.22;5083644;27;45545;-82
2023/03/23 17:54:30;;;;;;;;;1.33;1.33;;;;;28.66;31.90;100187.16;5101397;27;45651;-78
2023/03/23 17:56:57;;;;;;;;;1.67;1.00;;;;;28.69;32.16;100182.31;5102925;27;45848;-81
2023/03/23 17:59:24;;;;;;;;;4.33;3.33;;;;;28.65;32.02;100190.13;5093821;27;46646;-79
2023/03/23 18:01:51;;;;;;;;;3.00;2.00;;;;;28.62;31.26;100182.34;5091921;27;45606;-83
2023/03/23 18:04:16;;;;;;;;;2.67;1.67;;;;;28.58;31.39;100192.88;5090236;27;45381;-78
2023/03/23 18:06:42;;;;;;;;;3.67;3.67;;;;;28.54;31.31;100189.72;5096489;27;45507;-79
2023/03/23 18:09:08;;;;;;;;;3.67;3.67;;;;;28.51;31.87;100190.16;5091581;27;45363;-79
2023/03/23 18:11:34;;;;;;;;;3.00;3.00;;;;;28.48;31.86;100189.75;5090165;27;45392;-79
2023/03/23 18:14:00;;;;;;;;;4.67;3.00;;;;;28.46;31.93;100181.78;5096436;27;45517;-79
2023/03/23 18:16:25;;;;;;;;;4.00;2.33;;;;;28.43;31.28;100184.94;5088834;27;45317;-79
2023/03/23 18:18:50;;;;;;;;;2.00;2.00;;;;;28.40;31.88;100186.22;5093449;27;45635;-78
2023/03/23 18:21:16;;;;;;;;;2.67;2.00;;;;;28.37;31.97;100174.88;5088660;27;45494;-79
2023/03/23 18:23:41;;;;;;;;;2.00;2.00;;;;;28.33;31.78;100169.03;5092808;27;45388;-78
2023/03/23 18:26:09;;;;;;;;;2.67;0.33;;;;;28.28;31.74;100163.34;5096997;27;45681;-81
2023/03/23 18:28:35;;;;;;;;;3.33;1.33;;;;;28.28;31.34;100169.66;5092946;27;46170;-81
2023/03/23 18:31:06;;;;;;;;;2.00;1.33;;;;;28.25;31.40;100166.53;5089828;27;45620;-80
2023/03/23 18:33:33;;;;;;;;;2.33;2.00;;;;;28.21;31.93;100149.72;5087595;27;45839;-80
2023/03/23 18:36:00;;;;;;;;;1.67;1.67;;;;;28.22;31.69;100169.66;5100997;27;45629;-79
2023/03/23 18:38:27;;;;;;;;;5.00;4.00;;;;;28.18;31.91;100163.78;5087143;27;45490;-81
2023/03/23 18:40:53;;;;;;;;;4.00;3.00;;;;;28.17;31.30;100162.13;5097200;27;45640;-81
2023/03/23 18:43:19;;;;;;;;;3.00;2.33;;;;;28.14;31.29;100157.94;5079871;27;45496;-80
2023/03/23 18:45:54;;;;;;;;;1.00;1.00;;;;;28.13;31.29;100152.69;5084169;27;45441;-76
2023/03/23 18:48:21;;;;;;;;;6.00;3.00;;;;;28.15;31.86;100159.59;5072223;27;47075;-76
2023/03/23 18:50:47;;;;;;;;;5.00;3.67;;;;;28.13;31.90;100158.13;5081560;27;45504;-81
2023/03/23 18:53:14;;;;;;;;;4.33;3.00;;;;;28.09;32.02;100148.69;5094039;27;46016;-80